Time;durP1;ratioP1;P1;durP2;ratioP2;P2;SDS_P1;SDS_P2;PMS_P1;PMS_P2;Temp;Humidity;BMP_temperature;BMP_pressure;BME280_temperature;BME280_humidity;BME280_pressure;Samples;Min_cycle;Max_cycle;Signal;HPM_P1;HPM_P2
2023/05/07 00:00:09;;;;;;;0.30;0.30;;;;;;;23.04;59.76;101745.25;5076793;28;20037;-66
2023/05/07 00:02:34;;;;;;;0.20;0.20;;;;;;;22.96;60.41;101740.41;5072394;28;20503;-67
2023/05/07 00:05:00;;;;;;;0.40;0.40;;;;;;;23.10;59.81;101741.38;5072515;28;20080;-67
2023/05/07 00:07:26;;;;;;;0.30;0.30;;;;;;;22.98;60.40;101740.91;5078627;28;20086;-66
2023/05/07 00:09:51;;;;;;;0.20;0.20;;;;;;;22.74;61.03;101740.00;5082626;28;20044;-68
2023/05/07 00:12:16;;;;;;;0.30;0.30;;;;;;;22.79;60.72;101742.69;5080229;28;20047;-68
2023/05/07 00:14:42;;;;;;;0.20;0.20;;;;;;;22.57;62.15;101749.41;5083801;28;20488;-68
2023/05/07 00:17:07;;;;;;;0.30;0.30;;;;;;;23.15;59.88;101744.91;5081433;28;20048;-68
2023/05/07 00:19:33;;;;;;;0.28;0.28;;;;;;;22.80;61.47;101736.94;5076221;28;20037;-67
2023/05/07 00:21:58;;;;;;;0.28;0.28;;;;;;;23.02;60.01;101737.31;5071547;28;20381;-66
2023/05/07 00:24:24;;;;;;;0.28;0.28;;;;;;;23.11;60.01;101735.63;5073230;28;20028;-68
2023/05/07 00:26:49;;;;;;;0.43;0.43;;;;;;;23.06;60.54;101741.13;5072044;28;20155;-66
2023/05/07 00:29:15;;;;;;;0.20;0.20;;;;;;;23.10;59.71;101736.72;5073243;28;20025;-66
2023/05/07 00:31:40;;;;;;;0.20;0.20;;;;;;;23.19;60.18;101737.72;5073020;28;20039;-67
2023/05/07 00:34:05;;;;;;;0.20;0.20;;;;;;;22.67;61.02;101743.06;5054011;28;20500;-67
2023/05/07 00:36:31;;;;;;;0.20;0.20;;;;;;;23.31;58.95;101737.41;5072812;28;20046;-67
2023/05/07 00:38:59;;;;;;;0.10;0.10;;;;;;;23.14;59.45;101737.78;5073158;28;20089;-66
2023/05/07 00:41:25;;;;;;;0.20;0.20;;;;;;;23.18;59.49;101735.28;5073223;28;20487;-67
2023/05/07 00:43:51;;;;;;;0.10;0.10;;;;;;;23.41;58.06;101729.88;5073066;28;20033;-67
2023/05/07 00:46:17;;;;;;;0.17;0.17;;;;;;;23.24;59.09;101734.94;5074696;28;20473;-67
2023/05/07 00:48:42;;;;;;;0.30;0.30;;;;;;;23.27;58.89;101731.63;5072247;28;20024;-68
2023/05/07 00:51:11;;;;;;;0.15;0.15;;;;;;;23.24;59.20;101726.72;5072536;28;20033;-67
2023/05/07 00:53:36;;;;;;;0.20;0.20;;;;;;;23.34;59.03;101726.66;5054513;28;20058;-67
2023/05/07 00:56:02;;;;;;;0.20;0.20;;;;;;;23.36;58.26;101724.44;5071970;28;20036;-68
2023/05/07 00:58:27;;;;;;;0.25;0.25;;;;;;;23.42;58.44;101723.31;5072194;28;20373;-66
2023/05/07 01:00:53;;;;;;;0.20;0.20;;;;;;;23.44;58.47;101723.00;5072162;28;20043;-65
2023/05/07 01:03:18;;;;;;;0.20;0.20;;;;;;;22.97;59.82;101725.59;5072460;28;20027;-66
2023/05/07 01:05:45;;;;;;;0.20;0.20;;;;;;;22.96;59.63;101730.25;5054541;28;20028;-68
2023/05/07 01:08:11;;;;;;;0.15;0.15;;;;;;;22.91;59.54;101726.72;5072481;28;20119;-67
2023/05/07 01:10:37;;;;;;;0.20;0.20;;;;;;;23.01;59.33;101719.25;5071714;28;20425;-68
2023/05/07 01:13:03;;;;;;;0.20;0.20;;;;;;;22.92;60.04;101722.88;5072183;28;20040;-66
2023/05/07 01:15:28;;;;;;;0.20;0.20;;;;;;;23.02;59.44;101709.91;5070450;28;20040;-67
2023/05/07 01:17:55;;;;;;;0.20;0.20;;;;;;;23.02;59.68;101718.13;5071761;28;20055;-66
2023/05/07 01:20:22;;;;;;;0.20;0.20;;;;;;;22.86;60.57;101708.38;5072430;28;20024;-67
2023/05/07 01:22:49;;;;;;;0.22;0.22;;;;;;;23.05;59.57;101712.09;5071731;28;20318;-68
2023/05/07 01:25:16;;;;;;;0.20;0.20;;;;;;;22.75;60.63;101704.09;5071873;28;20488;-66
2023/05/07 01:27:41;;;;;;;0.20;0.20;;;;;;;22.25;62.42;101707.13;5071892;28;20039;-67
2023/05/07 01:30:07;;;;;;;0.20;0.20;;;;;;;22.50;62.10;101709.72;5071901;28;20488;-67
2023/05/07 01:32:53;;;;;;;0.22;0.22;;;;;;;22.85;60.73;101706.75;5072337;28;20055;-67
2023/05/07 01:35:22;;;;;;;0.20;0.20;;;;;;;22.00;63.80;101707.22;5071954;28;20109;-67
2023/05/07 01:37:49;;;;;;;0.13;0.13;;;;;;;22.60;61.37;101710.47;5055367;28;20498;-66
2023/05/07 01:40:14;;;;;;;0.30;0.30;;;;;;;22.43;62.79;101714.66;5072002;28;20068;-67
2023/05/07 01:42:42;;;;;;;0.30;0.30;;;;;;;22.32;63.22;101710.34;5071475;28;20519;-67
2023/05/07 01:45:08;;;;;;;0.20;0.20;;;;;;;22.28;62.55;101709.28;5073747;28;20036;-68
2023/05/07 01:47:35;;;;;;;0.30;0.30;;;;;;;22.16;63.38;101712.34;5072070;28;20020;-67
2023/05/07 01:50:01;;;;;;;0.20;0.20;;;;;;;22.37;63.07;101716.63;5071447;28;20033;-67
2023/05/07 01:52:27;;;;;;;0.13;0.13;;;;;;;22.60;62.13;101713.22;5071427;28;20443;-67
2023/05/07 01:54:53;;;;;;;0.20;0.20;;;;;;;22.63;61.53;101720.06;5055395;28;20036;-66
2023/05/07 01:57:18;;;;;;;0.10;0.10;;;;;;;22.12;63.44;101718.66;5071155;28;20040;-66
2023/05/07 01:59:44;;;;;;;0.30;0.30;;;;;;;22.11;63.62;101717.84;5071901;28;20119;-67
2023/05/07 02:02:09;;;;;;;0.30;0.30;;;;;;;22.58;61.87;101706.41;5071454;28;20472;-66
2023/05/07 02:04:35;;;;;;;0.10;0.10;;;;;;;22.44;61.95;101719.06;5070776;28;20025;-66
2023/05/07 02:07:00;;;;;;;0.20;0.20;;;;;;;22.20;62.75;101718.06;5071067;28;20036;-67
2023/05/07 02:09:25;;;;;;;0.30;0.30;;;;;;;22.53;61.85;101715.44;5071171;28;20036;-67
2023/05/07 02:11:51;;;;;;;0.20;0.20;;;;;;;22.64;61.11;101716.22;5070934;28;20027;-67
2023/05/07 02:14:16;;;;;;;0.20;0.20;;;;;;;22.70;61.58;101717.84;5071614;28;20020;-66
2023/05/07 02:16:42;;;;;;;0.20;0.20;;;;;;;22.05;63.41;101718.97;5070512;28;20056;-66
2023/05/07 02:19:07;;;;;;;0.22;0.22;;;;;;;22.19;63.45;101722.72;5070517;28;20519;-66
2023/05/07 02:21:32;;;;;;;0.20;0.20;;;;;;;21.95;63.55;101720.94;5070820;28;20027;-67
2023/05/07 02:23:58;;;;;;;0.30;0.30;;;;;;;22.60;61.29;101728.88;5071109;28;20024;-66
2023/05/07 02:26:23;;;;;;;0.30;0.30;;;;;;;22.36;61.61;101727.88;5071097;28;20028;-66
2023/05/07 02:28:49;;;;;;;0.25;0.25;;;;;;;22.57;61.08;101727.50;5070746;28;20365;-66
2023/05/07 02:31:14;;;;;;;0.13;0.13;;;;;;;22.56;61.11;101717.59;5053546;28;20086;-66
2023/05/07 02:33:39;;;;;;;0.22;0.22;;;;;;;22.18;62.23;101714.81;5070882;28;20066;-66
2023/05/07 02:36:11;;;;;;;0.30;0.30;;;;;;;21.98;62.87;101715.72;5070125;28;20032;-65
2023/05/07 02:38:36;;;;;;;0.20;0.20;;;;;;;21.88;63.17;101717.69;5071932;28;20044;-66
2023/05/07 02:41:02;;;;;;;0.20;0.20;;;;;;;22.23;61.29;101723.00;5071695;28;20124;-66
2023/05/07 02:43:27;;;;;;;0.40;0.40;;;;;;;22.23;61.27;101720.28;5071523;28;20032;-66
2023/05/07 02:46:03;;;;;;;0.20;0.20;;;;;;;22.15;61.93;101729.88;5073866;28;20025;-67
2023/05/07 02:48:29;;;;;;;0.20;0.20;;;;;;;22.09;61.36;101725.53;5071247;28;20028;-68
2023/05/07 02:50:54;;;;;;;0.20;0.20;;;;;;;21.78;62.47;101734.91;5071056;28;20094;-67
2023/05/07 02:53:20;;;;;;;0.20;0.20;;;;;;;21.60;62.46;101728.09;5071889;28;20027;-65
2023/05/07 02:55:45;;;;;;;0.30;0.30;;;;;;;21.31;64.14;101720.75;5071061;28;20672;-67
2023/05/07 02:58:10;;;;;;;0.17;0.17;;;;;;;21.45;62.77;101721.84;5071332;28;20047;-66
2023/05/07 03:00:36;;;;;;;50.08;25.05;;;;;;;21.69;62.29;101723.72;5070218;28;20086;-67
2023/05/07 03:03:01;;;;;;;0.40;0.40;;;;;;;20.93;64.26;101724.84;5071247;28;20031;-67
2023/05/07 03:05:27;;;;;;;0.40;0.40;;;;;;;20.72;65.25;101728.63;5071813;28;20294;-65
2023/05/07 03:07:52;;;;;;;0.40;0.40;;;;;;;21.14;64.76;101723.78;5071309;28;20033;-66
2023/05/07 03:10:18;;;;;;;0.40;0.40;;;;;;;21.40;63.10;101719.13;5071234;28;20040;-67
2023/05/07 03:12:43;;;;;;;0.35;0.35;;;;;;;21.34;63.15;101722.94;5070843;28;20068;-66
2023/05/07 03:15:10;;;;;;;0.45;0.45;;;;;;;21.46;62.69;101727.03;5071025;28;20029;-66
2023/05/07 03:17:35;;;;;;;0.50;0.50;;;;;;;21.78;61.17;101730.25;5071630;28;20077;-67
2023/05/07 03:20:01;;;;;;;0.30;0.30;;;;;;;21.21;63.28;101729.78;5070744;28;20408;-67
2023/05/07 03:22:26;;;;;;;0.40;0.40;;;;;;;20.24;66.19;101720.88;5070998;28;20029;-67
2023/05/07 03:24:51;;;;;;;0.28;0.28;;;;;;;20.30;66.08;101731.53;5070589;28;20520;-66
2023/05/07 03:27:17;;;;;;;0.30;0.30;;;;;;;20.04;66.78;101729.75;5070882;28;20036;-67
2023/05/07 03:29:42;;;;;;;83.97;52.83;;;;;;;20.34;65.47;101726.38;5071308;28;20024;-66
2023/05/07 03:32:08;;;;;;;0.30;0.30;;;;;;;20.77;64.21;101729.47;5052307;28;20074;-66
2023/05/07 03:34:33;;;;;;;0.20;0.20;;;;;;;21.24;62.23;101728.44;5070383;28;20055;-67
2023/05/07 03:36:58;;;;;;;197.38;176.32;;;;;;;21.74;60.04;101726.44;5070710;28;20033;-66
2023/05/07 03:39:24;;;;;;;0.30;0.30;;;;;;;21.81;60.10;101724.25;5074266;28;20033;-67
2023/05/07 03:41:49;;;;;;;0.20;0.20;;;;;;;22.17;58.14;101724.13;5074987;28;20036;-66
2023/05/07 03:44:15;;;;;;;0.40;0.40;;;;;;;22.14;58.09;101724.69;5075930;28;20070;-66
2023/05/07 03:46:40;;;;;;;0.30;0.30;;;;;;;21.89;59.20;101730.25;5076313;28;20036;-67
2023/05/07 03:49:05;;;;;;;0.30;0.30;;;;;;;21.23;60.71;101730.34;5074848;28;20032;-67
2023/05/07 03:51:31;;;;;;;0.30;0.30;;;;;;;21.60;59.78;101733.56;5074846;28;20028;-67
2023/05/07 03:53:57;;;;;;;0.30;0.30;;;;;;;21.49;60.04;101728.41;5074692;28;20453;-66
2023/05/07 03:56:22;;;;;;;0.20;0.20;;;;;;;21.41;60.54;101737.97;5075172;28;20020;-66
2023/05/07 03:58:48;;;;;;;0.28;0.28;;;;;;;21.56;60.06;101731.69;5073947;28;20381;-66
2023/05/07 04:01:13;;;;;;;0.30;0.30;;;;;;;21.56;60.61;101731.69;5074354;28;20093;-69
2023/05/07 04:03:39;;;;;;;0.20;0.20;;;;;;;21.92;58.87;101743.38;5073890;28;20116;-66
2023/05/07 04:06:04;;;;;;;0.30;0.30;;;;;;;21.96;58.48;101741.72;5074069;28;20028;-66
2023/05/07 04:08:30;;;;;;;0.20;0.20;;;;;;;21.94;58.71;101750.22;5074407;28;20033;-66
2023/05/07 04:10:56;;;;;;;0.20;0.20;;;;;;;21.69;58.40;101753.81;5073839;28;20037;-66
2023/05/07 04:13:22;;;;;;;0.10;0.10;;;;;;;21.66;59.15;101753.56;5073886;28;20060;-66
2023/05/07 04:15:48;;;;;;;0.17;0.17;;;;;;;21.84;58.98;101761.19;5073749;28;20043;-67
2023/05/07 04:18:14;;;;;;;0.30;0.30;;;;;;;21.86;58.13;101760.94;5074165;28;20044;-66
2023/05/07 04:20:40;;;;;;;0.20;0.20;;;;;;;22.00;57.83;101753.75;5074427;28;20029;-66
2023/05/07 04:23:05;;;;;;;0.25;0.25;;;;;;;21.36;59.55;101759.06;5074087;28;20550;-66
2023/05/07 04:25:30;;;;;;;0.30;0.30;;;;;;;21.45;59.07;101755.47;5074006;28;20040;-66
2023/05/07 04:27:56;;;;;;;0.30;0.30;;;;;;;20.39;61.85;101756.41;5074043;28;20090;-66
2023/05/07 04:30:21;;;;;;;98.72;93.28;;;;;;;21.24;59.50;101755.75;5074113;28;20040;-66
2023/05/07 04:32:48;;;;;;;87.60;82.72;;;;;;;21.52;58.58;101758.75;5073737;28;20377;-66
2023/05/07 04:35:13;;;;;;;4.13;3.92;;;;;;;21.29;59.08;101756.56;5073988;28;20123;-66
2023/05/07 04:37:38;;;;;;;0.70;0.70;;;;;;;21.70;58.05;101760.09;5073698;28;20032;-66
2023/05/07 04:40:04;;;;;;;0.90;0.90;;;;;;;21.52;58.50;101756.00;5073598;28;20570;-65
2023/05/07 04:42:31;;;;;;;0.50;0.50;;;;;;;21.41;58.69;101757.13;5073413;28;20032;-66
2023/05/07 04:44:56;;;;;;;0.40;0.40;;;;;;;21.66;58.03;101759.81;5076092;28;20365;-66
2023/05/07 04:47:21;;;;;;;0.40;0.40;;;;;;;21.60;57.97;101762.88;5074252;28;20157;-67
2023/05/07 04:49:47;;;;;;;0.40;0.40;;;;;;;20.93;60.39;101760.38;5071997;28;20025;-66
2023/05/07 04:52:12;;;;;;;0.77;0.77;;;;;;;21.33;58.46;101763.13;5073675;28;20074;-67
2023/05/07 04:54:37;;;;;;;1.10;1.10;;;;;;;21.49;57.64;101767.50;5073244;28;20393;-66
2023/05/07 04:57:04;;;;;;;1.00;1.00;;;;;;;21.08;58.87;101771.34;5073176;28;20066;-67
2023/05/07 04:59:30;;;;;;;1.40;1.40;;;;;;;21.07;59.34;101772.41;5074013;28;20029;-67
2023/05/07 05:01:55;;;;;;;1.38;1.38;;;;;;;20.67;59.68;101777.81;5073243;28;20033;-66
2023/05/07 05:04:20;;;;;;;1.30;1.30;;;;;;;20.56;60.46;101778.88;5073559;28;20047;-67
2023/05/07 05:06:46;;;;;;;1.40;1.40;;;;;;;20.64;59.92;101783.78;5072744;28;20044;-67
2023/05/07 05:09:11;;;;;;;1.15;1.15;;;;;;;20.79;59.97;101781.09;5073375;28;20033;-68
2023/05/07 05:11:36;;;;;;;0.90;0.90;;;;;;;21.11;59.18;101784.44;5055675;28;20028;-68
2023/05/07 05:14:02;;;;;;;0.77;0.77;;;;;;;20.34;60.64;101786.44;5073340;28;20032;-66
2023/05/07 05:16:27;;;;;;;0.60;0.60;;;;;;;21.16;59.41;101792.69;5073202;28;20060;-67
2023/05/07 05:18:54;;;;;;;0.50;0.50;;;;;;;20.75;59.15;101785.47;5072945;28;20059;-68
2023/05/07 05:21:20;;;;;;;1.00;1.00;;;;;;;20.70;60.67;101793.63;5073139;28;20064;-65
2023/05/07 05:23:45;;;;;;;3.78;3.58;;;;;;;20.61;59.96;101804.28;5073653;28;20074;-66
2023/05/07 05:26:11;;;;;;;4.88;4.68;;;;;;;20.76;59.97;101803.50;5072907;28;20419;-67
2023/05/07 05:28:36;;;;;;;3.53;3.40;;;;;;;21.36;58.03;101800.91;5071596;28;20040;-67
2023/05/07 05:31:02;;;;;;;2.97;2.88;;;;;;;19.93;61.63;101809.94;5072852;28;20032;-66
2023/05/07 05:33:27;;;;;;;1.27;1.27;;;;;;;21.02;59.54;101807.97;5072435;28;20627;-67
2023/05/07 05:35:54;;;;;;;0.90;0.90;;;;;;;20.02;61.71;101803.72;5072109;28;20067;-67
2023/05/07 05:38:20;;;;;;;0.65;0.65;;;;;;;20.17;61.49;101813.88;5073342;28;20031;-67
2023/05/07 05:40:46;;;;;;;0.50;0.50;;;;;;;20.70;59.96;101813.59;5072249;28;20111;-66
2023/05/07 05:43:11;;;;;;;0.50;0.50;;;;;;;20.37;61.50;101815.91;5072777;28;20170;-66
2023/05/07 05:45:37;;;;;;;0.57;0.57;;;;;;;20.62;59.84;101814.09;5074784;28;20703;-67
2023/05/07 05:48:02;;;;;;;0.45;0.43;;;;;;;20.99;59.34;101822.16;5072319;28;20028;-66
2023/05/07 05:50:28;;;;;;;0.40;0.40;;;;;;;20.59;59.92;101816.56;5071915;28;20048;-67
2023/05/07 05:52:53;;;;;;;5.45;5.15;;;;;;;21.34;57.48;101816.75;5071691;28;20044;-66
2023/05/07 05:55:19;;;;;;;3.58;3.40;;;;;;;20.90;58.13;101823.75;5071771;28;20033;-65
2023/05/07 05:57:45;;;;;;;1.98;1.88;;;;;;;21.06;59.06;101830.09;5071690;28;20029;-66
2023/05/07 06:00:11;;;;;;;1.00;1.00;;;;;;;20.25;60.27;101823.50;5052798;28;20043;-66
2023/05/07 06:02:36;;;;;;;0.75;0.75;;;;;;;21.12;57.88;101823.56;5071776;28;20113;-67
2023/05/07 06:05:02;;;;;;;3.85;3.67;;;;;;;21.00;58.28;101821.88;5071791;28;20115;-67
2023/05/07 06:07:28;;;;;;;4.22;4.03;;;;;;;21.48;56.73;101817.03;5071430;28;20140;-67
2023/05/07 06:09:53;;;;;;;3.85;3.65;;;;;;;20.28;60.03;101829.28;5071414;28;20040;-66
2023/05/07 06:12:18;;;;;;;2.50;2.40;;;;;;;20.47;59.91;101835.06;5071065;28;20032;-67
2023/05/07 06:14:44;;;;;;;1.90;1.80;;;;;;;20.64;60.14;101825.59;5052377;28;20421;-66
2023/05/07 06:17:09;;;;;;;0.85;0.85;;;;;;;20.51;58.92;101828.81;5071131;28;20073;-67
2023/05/07 06:19:35;;;;;;;0.52;0.52;;;;;;;20.74;59.26;101833.00;5070744;28;20365;-67
2023/05/07 06:22:01;;;;;;;0.40;0.40;;;;;;;20.08;61.44;101838.13;5069818;28;20040;-67
2023/05/07 06:24:27;;;;;;;2.53;2.42;;;;;;;20.34;60.73;101835.56;5052432;28;20451;-66
2023/05/07 06:26:52;;;;;;;4.72;4.53;;;;;;;21.16;58.77;101833.69;5070207;28;20028;-66
2023/05/07 06:29:18;;;;;;;6.03;5.72;;;;;;;21.11;58.42;101838.31;5071253;28;20033;-67
2023/05/07 06:31:43;;;;;;;1.30;1.30;;;;;;;21.03;58.19;101836.13;5069858;28;20405;-68
2023/05/07 06:34:08;;;;;;;3.25;3.15;;;;;;;21.11;57.56;101833.66;5070348;28;20443;-66
2023/05/07 06:36:34;;;;;;;3.40;3.30;;;;;;;21.58;56.88;101839.72;5069829;28;20024;-67
2023/05/07 06:39:00;;;;;;;5.32;5.10;;;;;;;21.86;56.48;101832.09;5068262;28;20477;-67
2023/05/07 06:41:25;;;;;;;5.68;5.38;;;;;;;21.05;58.45;101834.75;5051200;28;20040;-67
2023/05/07 06:43:51;;;;;;;5.00;4.80;;;;;;;20.59;60.21;101833.78;5066879;28;20029;-66
2023/05/07 06:46:16;;;;;;;4.43;4.22;;;;;;;20.92;59.42;101833.34;5067171;28;20036;-66
2023/05/07 06:48:41;;;;;;;2.55;2.45;;;;;;;21.13;58.55;101836.16;5064094;28;20025;-67
2023/05/07 06:51:07;;;;;;;1.42;1.42;;;;;;;21.14;58.53;101837.78;5069929;28;20502;-68
2023/05/07 06:53:32;;;;;;;2.65;2.55;;;;;;;21.82;56.50;101846.31;5067589;28;20020;-67
2023/05/07 06:55:58;;;;;;;0.40;0.40;;;;;;;21.90;55.47;101846.81;5064336;28;20024;-67
2023/05/07 06:58:23;;;;;;;0.20;0.20;;;;;;;21.68;57.49;101845.19;5067062;28;20032;-68
2023/05/07 07:00:49;;;;;;;0.40;0.40;;;;;;;21.40;56.85;101843.00;5063991;28;20111;-67
2023/05/07 07:03:14;;;;;;;0.30;0.30;;;;;;;21.44;57.43;101844.09;5064840;28;20345;-67
2023/05/07 07:05:43;;;;;;;0.30;0.30;;;;;;;21.30;58.38;101839.44;5062287;28;20020;-66
2023/05/07 07:08:09;;;;;;;0.50;0.50;;;;;;;21.92;56.60;101853.69;5069012;28;20408;-67
2023/05/07 07:10:35;;;;;;;2.00;1.90;;;;;;;21.30;58.38;101848.47;5057770;28;20036;-67
2023/05/07 07:13:00;;;;;;;3.40;3.30;;;;;;;20.67;60.26;101851.56;5068936;28;20033;-67
2023/05/07 07:15:26;;;;;;;4.40;4.20;;;;;;;21.45;57.66;101845.75;5067008;28;20040;-67
2023/05/07 07:17:51;;;;;;;60.00;56.70;;;;;;;21.47;57.44;101849.03;5059318;28;20259;-68
2023/05/07 07:20:16;;;;;;;55.08;52.05;;;;;;;22.14;55.33;101848.72;5069747;28;20050;-66
2023/05/07 07:22:42;;;;;;;34.75;32.85;;;;;;;21.66;56.62;101857.53;5064314;28;20069;-66
2023/05/07 07:25:08;;;;;;;29.83;28.23;;;;;;;21.51;57.31;101855.59;5064124;28;20512;-67
2023/05/07 07:27:33;;;;;;;30.17;28.58;;;;;;;22.38;54.68;101857.97;5061997;28;20119;-67
2023/05/07 07:29:59;;;;;;;18.27;17.30;;;;;;;22.74;55.00;101852.38;5064339;28;20021;-65
2023/05/07 07:32:24;;;;;;;15.50;14.70;;;;;;;22.16;55.34;101853.91;5064612;28;20380;-67
2023/05/07 07:34:49;;;;;;;6.80;6.50;;;;;;;21.51;57.06;101852.03;5065782;28;20139;-66
2023/05/07 07:37:15;;;;;;;7.63;7.22;;;;;;;21.48;57.60;101850.66;5050174;28;20052;-65
2023/05/07 07:39:41;;;;;;;0.50;0.50;;;;;;;22.24;55.40;101851.44;5071417;28;20538;-65
2023/05/07 07:42:06;;;;;;;1.40;1.40;;;;;;;21.65;58.08;101845.75;5056061;28;20029;-66
2023/05/07 07:44:31;;;;;;;1.85;1.75;;;;;;;23.11;53.87;101844.47;5069476;28;20022;-67
2023/05/07 07:46:57;;;;;;;3.33;3.22;;;;;;;21.58;57.55;101844.38;5069537;28;20036;-67
2023/05/07 07:49:22;;;;;;;4.18;3.97;;;;;;;21.73;57.04;101847.94;5069259;28;20037;-67
2023/05/07 07:51:48;;;;;;;4.13;3.92;;;;;;;22.36;56.02;101851.94;5069764;28;20033;-66
2023/05/07 07:54:13;;;;;;;4.05;3.85;;;;;;;22.37;56.67;101853.56;5069499;28;20036;-67
2023/05/07 07:56:38;;;;;;;3.35;3.25;;;;;;;22.89;54.45;101857.78;5069581;28;20291;-68
2023/05/07 07:59:04;;;;;;;2.38;2.28;;;;;;;22.84;54.76;101852.31;5065742;28;20533;-67
2023/05/07 08:01:30;;;;;;;0.60;0.60;;;;;;;23.05;55.61;101845.63;5069497;28;20033;-68
2023/05/07 08:03:57;;;;;;;27.60;25.15;;;;;;;23.86;52.86;101851.31;5065266;28;20051;-67
2023/05/07 08:06:23;;;;;;;0.60;0.60;;;;;;;23.45;53.42;101850.84;5064899;28;20477;-69
2023/05/07 08:08:48;;;;;;;0.50;0.50;;;;;;;23.50;53.24;101859.03;5058709;28;20020;-68
2023/05/07 08:11:14;;;;;;;0.90;0.90;;;;;;;22.78;55.34;101857.00;5068669;28;20020;-69
2023/05/07 08:13:39;;;;;;;1.10;1.10;;;;;;;23.04;55.21;101857.66;5069211;28;20466;-68
2023/05/07 08:16:05;;;;;;;1.00;1.00;;;;;;;22.64;57.23;101854.03;5069921;28;20055;-67
2023/05/07 08:18:30;;;;;;;1.20;1.20;;;;;;;22.76;55.84;101852.91;5069845;28;20032;-67
2023/05/07 08:20:56;;;;;;;0.82;0.82;;;;;;;23.41;53.95;101861.56;5069830;28;20032;-69
2023/05/07 08:23:22;;;;;;;0.70;0.70;;;;;;;23.43;54.87;101862.09;5069842;28;20056;-66
2023/05/07 08:25:49;;;;;;;0.60;0.60;;;;;;;24.02;53.56;101858.31;5072667;28;20039;-69
2023/05/07 08:28:15;;;;;;;0.63;0.63;;;;;;;24.25;53.35;101861.09;5072690;28;20287;-67
2023/05/07 08:30:40;;;;;;;0.10;0.10;;;;;;;23.51;53.32;101857.91;5072588;28;20087;-68
2023/05/07 08:33:06;;;;;;;235.18;221.55;;;;;;;22.66;54.65;101862.00;5072543;28;20435;-67
2023/05/07 08:35:31;;;;;;;345.80;325.70;;;;;;;24.17;53.44;101858.19;5073009;28;20056;-67
2023/05/07 08:37:57;;;;;;;374.50;351.80;;;;;;;24.65;50.92;101859.78;5072929;28;20083;-67
2023/05/07 08:40:26;;;;;;;269.23;253.10;;;;;;;25.07;50.12;101853.47;5072390;28;20041;-68
2023/05/07 08:42:53;;;;;;;195.48;184.30;;;;;;;24.71;51.51;101858.63;5055548;28;20128;-68
2023/05/07 08:45:20;;;;;;;171.88;162.00;;;;;;;23.58;52.69;101869.41;5074978;28;20041;-68
2023/05/07 08:47:50;;;;;;;139.75;131.77;;;;;;;23.96;52.63;101863.00;5073117;28;20033;-67
2023/05/07 08:50:15;;;;;;;161.40;152.18;;;;;;;23.79;53.02;101857.16;5071617;28;20035;-68
2023/05/07 08:52:41;;;;;;;171.57;162.02;;;;;;;24.30;52.75;101865.72;5072064;28;20037;-68
2023/05/07 08:55:08;;;;;;;175.65;165.50;;;;;;;24.05;52.73;101863.25;5072254;28;20044;-67
2023/05/07 08:57:33;;;;;;;136.82;129.20;;;;;;;24.46;51.30;101861.69;5071891;28;20098;-68
2023/05/07 08:59:59;;;;;;;104.05;98.25;;;;;;;24.40;51.82;101858.19;5072493;28;20029;-70
2023/05/07 09:02:24;;;;;;;76.80;72.50;;;;;;;24.06;52.45;101862.13;5072968;28;20016;-68
2023/05/07 09:04:50;;;;;;;50.40;47.60;;;;;;;23.98;52.59;101866.28;5071563;28;20443;-67
2023/05/07 09:07:16;;;;;;;55.92;52.80;;;;;;;23.93;52.61;101868.28;5071818;28;20029;-68
2023/05/07 09:09:44;;;;;;;59.05;55.75;;;;;;;24.21;53.07;101860.06;5072444;28;20043;-68
2023/05/07 09:12:09;;;;;;;115.65;109.13;;;;;;;25.50;49.01;101855.03;5072232;28;20512;-69
2023/05/07 09:14:35;;;;;;;143.02;134.57;;;;;;;24.98;49.48;101861.56;5071952;28;20058;-68
2023/05/07 09:17:01;;;;;;;76.63;72.35;;;;;;;24.73;50.78;101863.84;5071689;28;20040;-68
2023/05/07 09:19:27;;;;;;;156.02;147.15;;;;;;;24.38;51.84;101863.16;5071870;28;20036;-68
2023/05/07 09:22:00;;;;;;;210.07;197.80;;;;;;;25.15;49.17;101856.41;5071728;28;20451;-69
2023/05/07 09:24:25;;;;;;;294.08;276.40;;;;;;;25.45;48.79;101865.31;5071129;28;20455;-69
2023/05/07 09:26:51;;;;;;;417.75;390.88;;;;;;;25.25;49.63;101869.19;5080265;28;20020;-68
2023/05/07 09:29:17;;;;;;;338.40;317.45;;;;;;;25.30;49.25;101858.09;5084572;28;20039;-68
2023/05/07 09:31:42;;;;;;;278.13;260.85;;;;;;;25.52;48.53;101854.75;5073432;28;20056;-67
2023/05/07 09:34:08;;;;;;;270.98;254.80;;;;;;;24.87;50.06;101851.84;5071552;28;20072;-68
2023/05/07 09:36:33;;;;;;;217.85;205.43;;;;;;;24.68;50.83;101861.97;5070061;28;20490;-69
2023/05/07 09:39:00;;;;;;;232.52;219.40;;;;;;;25.17;50.82;101854.16;5071173;28;20029;-67
2023/05/07 09:41:26;;;;;;;245.23;231.23;;;;;;;25.75;49.37;101856.56;5071758;28;20032;-68
2023/05/07 09:43:54;;;;;;;345.85;324.80;;;;;;;24.99;51.13;101860.47;5071416;28;20028;-68
2023/05/07 09:46:27;;;;;;;277.33;261.30;;;;;;;24.85;50.80;101856.00;5058292;28;20032;-70
2023/05/07 09:48:55;;;;;;;323.88;304.40;;;;;;;24.85;51.63;101861.50;5061929;28;20044;-68
2023/05/07 09:51:31;;;;;;;233.00;219.77;;;;;;;25.33;50.01;101849.25;5067563;28;20061;-68
2023/05/07 09:53:59;;;;;;;187.25;176.75;;;;;;;27.14;46.64;101856.00;5066997;28;20028;-70
2023/05/07 09:56:32;;;;;;;178.05;167.95;;;;;;;26.59;46.34;101856.06;5070759;28;20103;-68
2023/05/07 09:59:01;;;;;;;183.40;172.98;;;;;;;25.19;49.06;101854.69;5049382;28;20033;-70
2023/05/07 10:01:28;;;;;;;127.72;120.57;;;;;;;25.17;48.77;101854.16;5070989;28;20032;-69
2023/05/07 10:03:54;;;;;;;79.38;74.97;;;;;;;25.16;50.59;101860.75;5071647;28;20400;-69
2023/05/07 10:06:20;;;;;;;91.65;86.57;;;;;;;25.30;49.34;101860.84;5070064;28;20035;-67
2023/05/07 10:08:47;;;;;;;99.22;93.70;;;;;;;25.50;47.59;101860.56;5070559;28;20013;-69
2023/05/07 10:11:14;;;;;;;84.90;80.22;;;;;;;25.51;47.84;101858.63;5052644;28;20051;-69
2023/05/07 10:13:41;;;;;;;222.38;209.98;;;;;;;26.23;48.18;101855.13;5070090;28;20051;-67
2023/05/07 10:16:07;;;;;;;138.60;130.90;;;;;;;26.41;46.74;101854.22;5068271;28;20040;-69
2023/05/07 10:18:33;;;;;;;7.93;7.43;;;;;;;26.20;46.98;101864.00;5071700;28;20542;-70
2023/05/07 10:21:07;;;;;;;0.60;0.60;;;;;;;26.76;46.31;101850.75;5070395;28;20452;-69
2023/05/07 10:23:34;;;;;;;0.10;0.10;;;;;;;25.90;47.92;101861.81;5065319;28;20368;-71
2023/05/07 10:26:05;;;;;;;0.10;0.10;;;;;;;25.99;47.61;101868.22;5066533;28;20032;-69
2023/05/07 10:28:34;;;;;;;0.00;0.00;;;;;;;25.49;47.69;101866.38;5069967;28;20040;-68
2023/05/07 10:31:11;;;;;;;0.00;0.00;;;;;;;25.54;49.11;101861.59;5068864;28;20096;-69
2023/05/07 10:33:39;;;;;;;0.10;0.10;;;;;;;26.08;46.96;101863.72;5066992;28;20500;-71
2023/05/07 10:36:06;;;;;;;0.10;0.10;;;;;;;26.01;45.94;101860.47;5067341;28;20093;-70
2023/05/07 10:38:32;;;;;;;0.10;0.10;;;;;;;26.25;47.72;101865.84;5069911;28;20411;-68
2023/05/07 10:40:58;;;;;;;0.10;0.10;;;;;;;25.99;46.67;101866.31;5070341;28;20032;-72
2023/05/07 10:43:23;;;;;;;0.10;0.10;;;;;;;26.71;46.00;101863.84;5049081;28;20032;-68
2023/05/07 10:46:26;;;;;;;0.00;0.00;;;;;;;26.99;45.72;101872.91;5065490;28;20040;-69
2023/05/07 10:49:00;;;;;;;0.03;0.03;;;;;;;27.19;45.50;101869.66;5064675;28;20064;-67
2023/05/07 10:51:27;;;;;;;0.00;0.00;;;;;;;27.31;44.71;101875.44;5067384;28;20062;-69
2023/05/07 10:54:10;;;;;;;0.10;0.10;;;;;;;27.53;43.87;101869.97;5069448;28;20032;-68
2023/05/07 10:56:43;;;;;;;0.00;0.00;;;;;;;27.44;43.89;101869.09;5056709;28;20016;-69
2023/05/07 10:59:20;;;;;;;0.05;0.05;;;;;;;26.71;45.14;101870.16;5070242;28;20159;-70
2023/05/07 11:01:59;;;;;;;0.00;0.00;;;;;;;26.90;44.57;101884.66;5072329;28;20358;-70
2023/05/07 11:04:28;;;;;;;0.00;0.00;;;;;;;26.22;45.69;101875.53;5070113;28;20075;-67
2023/05/07 11:07:05;;;;;;;0.10;0.10;;;;;;;26.33;46.66;101888.03;5073895;28;20043;-69
2023/05/07 11:09:53;;;;;;;0.03;0.03;;;;;;;27.23;44.10;101884.47;5065464;28;20120;-70
2023/05/07 11:12:36;;;;;;;0.00;0.00;;;;;;;27.51;44.99;101881.34;5063816;28;20041;-68
2023/05/07 11:15:12;;;;;;;0.05;0.05;;;;;;;27.08;46.82;101884.81;5069020;28;20492;-69